Kithnos, Greece
Current Conditions -  °F | °C
As of 9:20 PM on Thursday 27 Nov 2014 (Local Time) from LGAV Reporting Station
Drizzle Drizzle  
Wind Chill: 50°   Ceiling: Unl
Heat Index: 50°   Visibility: 6mi
Dew Point: 45°   Wind: 0mph
Humidity: 82%   Direction: NA
Pressure: 30.15"   Gusts: NA
Location:  37.42°N, 24.43°E
Report Text: LGAV 271820Z 00000KT 9999 -DZ FEW018 SCT025 10/07 Q1021 NOSIG
Loading
Personal Weather Stations






























Interactive Weather Map New forecast layout! Learn more

10-Day Weather Forecast

Advertisements
Track Severe Weather on mobile